createdAt,value
2017-07-29T00:00:14.862Z,19.37
2017-07-29T00:01:11.147Z,19.37
2017-07-29T00:02:07.386Z,19.36
2017-07-29T00:03:03.642Z,19.37
2017-07-29T00:03:59.882Z,19.36
2017-07-29T00:04:56.122Z,19.36
2017-07-29T00:05:52.346Z,19.35
2017-07-29T00:06:48.589Z,19.34
2017-07-29T00:07:44.853Z,19.34
2017-07-29T00:08:41.093Z,19.34
2017-07-29T00:09:37.326Z,19.34
2017-07-29T00:10:33.566Z,19.33
2017-07-29T00:11:29.811Z,19.32
2017-07-29T00:12:26.059Z,19.32
2017-07-29T00:13:22.906Z,19.31
2017-07-29T00:14:19.147Z,19.31
2017-07-29T00:15:15.390Z,19.30
2017-07-29T00:16:11.639Z,19.30
2017-07-29T00:17:07.890Z,19.29
2017-07-29T00:18:04.176Z,19.29
2017-07-29T00:19:00.418Z,19.27
2017-07-29T00:19:56.649Z,19.27
2017-07-29T00:20:52.890Z,19.26
2017-07-29T00:21:49.151Z,19.24
2017-07-29T00:22:45.387Z,19.24
2017-07-29T00:23:41.638Z,19.23
2017-07-29T00:24:37.883Z,19.22
2017-07-29T00:25:34.124Z,19.22
2017-07-29T00:26:30.386Z,19.22
2017-07-29T00:27:26.618Z,19.20
2017-07-29T00:28:22.902Z,19.18
2017-07-29T00:29:19.150Z,19.17
2017-07-29T00:30:15.406Z,19.15
2017-07-29T00:31:11.658Z,19.13
2017-07-29T00:32:07.907Z,19.12
2017-07-29T00:33:04.146Z,19.10
2017-07-29T00:34:00.402Z,19.10
2017-07-29T00:34:56.638Z,19.08
2017-07-29T00:35:52.875Z,19.07
2017-07-29T00:36:49.142Z,19.06
2017-07-29T00:37:45.390Z,19.05
2017-07-29T00:38:41.650Z,19.05
2017-07-29T00:39:37.894Z,19.03
2017-07-29T00:40:34.137Z,19.03
2017-07-29T00:41:30.395Z,19.02
2017-07-29T00:42:26.629Z,19.02
2017-07-29T00:43:22.883Z,19.01
2017-07-29T00:44:19.142Z,18.99
2017-07-29T00:45:15.388Z,19.01
2017-07-29T00:46:11.660Z,19.00
2017-07-29T00:47:07.908Z,19.00
2017-07-29T00:48:04.159Z,18.99
2017-07-29T00:49:00.420Z,18.99
2017-07-29T00:49:56.665Z,18.97
2017-07-29T00:50:52.919Z,18.98
2017-07-29T00:51:49.196Z,18.98
2017-07-29T00:52:46.198Z,18.97
2017-07-29T00:53:42.444Z,18.97
2017-07-29T00:54:38.709Z,18.97
2017-07-29T00:55:34.986Z,18.97
2017-07-29T00:56:31.250Z,18.96
2017-07-29T00:57:27.494Z,18.97
2017-07-29T00:58:23.746Z,18.97
2017-07-29T00:59:20.031Z,18.96
2017-07-29T01:00:16.278Z,18.96
2017-07-29T01:01:12.535Z,18.95
2017-07-29T01:02:08.811Z,18.95
2017-07-29T01:03:05.081Z,18.92
2017-07-29T01:04:01.346Z,18.93
2017-07-29T01:04:57.613Z,18.91
2017-07-29T01:05:53.886Z,18.90
2017-07-29T01:06:50.127Z,18.90
2017-07-29T01:07:46.368Z,18.89
2017-07-29T01:08:42.618Z,18.88
2017-07-29T01:09:38.894Z,18.87
2017-07-29T01:10:35.131Z,18.87
2017-07-29T01:11:31.378Z,18.85
2017-07-29T01:12:27.628Z,18.85
2017-07-29T01:13:23.877Z,18.85
2017-07-29T01:14:20.132Z,18.84
2017-07-29T01:15:16.396Z,18.81
2017-07-29T01:16:12.652Z,18.80
2017-07-29T01:17:08.891Z,18.79
2017-07-29T01:18:05.155Z,18.79
2017-07-29T01:19:01.402Z,18.77
2017-07-29T01:19:57.686Z,18.76
2017-07-29T01:20:53.930Z,18.75
2017-07-29T01:21:50.185Z,18.74
2017-07-29T01:22:46.430Z,18.74
2017-07-29T01:23:42.682Z,18.73
2017-07-29T01:24:38.921Z,18.71
2017-07-29T01:25:35.182Z,18.70
2017-07-29T01:26:31.422Z,18.65
2017-07-29T01:27:27.662Z,18.57
2017-07-29T01:28:23.916Z,18.50
2017-07-29T01:29:20.156Z,18.43
2017-07-29T01:30:16.470Z,18.39
2017-07-29T01:31:12.718Z,18.34
2017-07-29T01:32:08.961Z,18.28
2017-07-29T01:33:05.213Z,18.26
2017-07-29T01:34:01.446Z,18.20
2017-07-29T01:34:57.703Z,18.18
2017-07-29T01:35:53.969Z,18.13
2017-07-29T01:36:50.203Z,18.11
2017-07-29T01:37:46.458Z,18.07
2017-07-29T01:38:42.707Z,18.05
2017-07-29T01:39:38.959Z,18.02
2017-07-29T01:40:35.233Z,18.00
2017-07-29T01:41:31.470Z,17.98
2017-07-29T01:42:27.719Z,17.94
2017-07-29T01:43:23.971Z,17.93
2017-07-29T01:44:20.223Z,17.92
2017-07-29T01:45:16.469Z,17.90
2017-07-29T01:46:12.731Z,17.90
2017-07-29T01:47:08.979Z,17.88
2017-07-29T01:48:05.231Z,17.87
2017-07-29T01:49:01.482Z,17.85
2017-07-29T01:49:57.741Z,17.84
2017-07-29T01:50:53.999Z,17.83
2017-07-29T01:51:50.239Z,17.84
2017-07-29T01:52:46.490Z,17.82
2017-07-29T01:53:42.758Z,17.82
2017-07-29T01:54:38.993Z,17.81
2017-07-29T01:55:35.217Z,17.81
2017-07-29T01:56:31.470Z,17.81
2017-07-29T01:57:27.706Z,17.80
2017-07-29T01:58:23.966Z,17.80
2017-07-29T01:59:20.243Z,17.80
2017-07-29T02:00:16.502Z,17.79
2017-07-29T02:01:12.763Z,17.79
2017-07-29T02:02:09.002Z,17.80
2017-07-29T02:03:05.242Z,17.79
2017-07-29T02:04:01.487Z,17.79
2017-07-29T02:04:57.737Z,17.79
2017-07-29T02:05:53.979Z,17.79
2017-07-29T02:06:50.263Z,17.79
2017-07-29T02:07:46.530Z,17.78
2017-07-29T02:08:42.793Z,17.79
2017-07-29T02:09:39.025Z,17.79
2017-07-29T02:10:35.270Z,17.77
2017-07-29T02:11:31.530Z,17.78
2017-07-29T02:12:27.773Z,17.79
2017-07-29T02:13:24.018Z,17.78
2017-07-29T02:14:20.258Z,17.79
2017-07-29T02:15:16.991Z,17.79
2017-07-29T02:16:13.234Z,17.80
2017-07-29T02:17:09.503Z,17.78
2017-07-29T02:18:05.755Z,17.79
2017-07-29T02:19:02.010Z,17.80
2017-07-29T02:19:58.253Z,17.81
2017-07-29T02:20:54.489Z,17.79
2017-07-29T02:21:50.743Z,17.79
2017-07-29T02:22:47.015Z,17.80
2017-07-29T02:23:43.259Z,17.81
2017-07-29T02:24:39.510Z,17.81
2017-07-29T02:25:35.746Z,17.81
2017-07-29T02:26:34.338Z,17.81
2017-07-29T02:27:31.765Z,17.79
2017-07-29T02:28:28.012Z,17.81
2017-07-29T02:29:24.251Z,17.81
2017-07-29T02:30:20.908Z,17.81
2017-07-29T02:31:17.176Z,17.81
2017-07-29T02:32:13.453Z,17.82
2017-07-29T02:33:09.717Z,17.82
2017-07-29T02:34:05.972Z,17.81
2017-07-29T02:35:02.230Z,17.82
2017-07-29T02:35:58.491Z,17.82
2017-07-29T02:36:54.735Z,17.82
2017-07-29T02:37:51.008Z,17.83
2017-07-29T02:38:47.254Z,17.82
2017-07-29T02:39:43.494Z,17.83
2017-07-29T02:40:39.743Z,17.84
2017-07-29T02:41:35.981Z,17.83
2017-07-29T02:42:32.266Z,17.83
2017-07-29T02:43:28.517Z,17.85
2017-07-29T02:44:24.778Z,17.85
2017-07-29T02:45:21.033Z,17.85
2017-07-29T02:46:17.274Z,17.85
2017-07-29T02:47:13.515Z,17.87
2017-07-29T02:48:09.774Z,17.87
2017-07-29T02:49:06.015Z,17.87
2017-07-29T02:50:02.273Z,17.88
2017-07-29T02:50:58.534Z,17.87
2017-07-29T02:51:54.783Z,17.88
2017-07-29T02:52:51.075Z,17.88
2017-07-29T02:53:47.330Z,17.90
2017-07-29T02:54:43.583Z,17.89
2017-07-29T02:55:39.830Z,17.89
2017-07-29T02:56:36.077Z,17.89
2017-07-29T02:57:32.350Z,17.89
2017-07-29T02:58:28.611Z,17.90
2017-07-29T02:59:24.873Z,17.91
2017-07-29T03:00:21.114Z,17.91
2017-07-29T03:01:17.348Z,17.91
2017-07-29T03:02:13.610Z,17.90
2017-07-29T03:03:09.870Z,17.91
2017-07-29T03:04:06.118Z,17.92
2017-07-29T03:05:02.358Z,17.92
2017-07-29T03:05:58.606Z,17.93
2017-07-29T03:06:54.842Z,17.93
2017-07-29T03:07:51.078Z,17.94
2017-07-29T03:08:47.328Z,17.93
2017-07-29T03:09:43.575Z,17.94
2017-07-29T03:10:39.817Z,17.94
2017-07-29T03:11:36.075Z,17.96
2017-07-29T03:12:32.318Z,17.96
2017-07-29T03:13:28.575Z,17.96
2017-07-29T03:14:24.845Z,17.97
2017-07-29T03:15:22.079Z,17.98
2017-07-29T03:16:18.554Z,17.98
2017-07-29T03:17:14.991Z,17.98
2017-07-29T03:18:11.243Z,17.98
2017-07-29T03:19:07.498Z,17.99
2017-07-29T03:20:03.746Z,17.98
2017-07-29T03:20:59.994Z,18.00
2017-07-29T03:21:56.252Z,18.01
2017-07-29T03:22:52.499Z,18.01
2017-07-29T03:23:48.746Z,18.01
2017-07-29T03:24:44.987Z,18.01
2017-07-29T03:25:41.238Z,18.02
2017-07-29T03:26:37.482Z,18.03
2017-07-29T03:27:33.723Z,18.02
2017-07-29T03:28:29.962Z,18.02
2017-07-29T03:29:26.224Z,18.03
2017-07-29T03:30:23.682Z,18.04
2017-07-29T03:31:20.310Z,18.03
2017-07-29T03:32:16.555Z,18.05
2017-07-29T03:33:12.823Z,18.04
2017-07-29T03:34:09.091Z,18.04
2017-07-29T03:35:05.344Z,18.05
2017-07-29T03:36:01.915Z,18.04
2017-07-29T03:36:58.283Z,18.05
2017-07-29T03:37:56.186Z,18.07
2017-07-29T03:38:54.247Z,18.06
2017-07-29T03:39:51.569Z,18.07
2017-07-29T03:40:48.303Z,18.06
2017-07-29T03:41:45.027Z,18.08
2017-07-29T03:42:42.315Z,18.07
2017-07-29T03:43:39.483Z,18.08
2017-07-29T03:44:36.370Z,18.09
2017-07-29T03:45:32.887Z,18.10
2017-07-29T03:46:29.536Z,18.12
2017-07-29T03:47:26.123Z,18.12
2017-07-29T03:48:24.612Z,18.12
2017-07-29T03:49:21.931Z,18.12
2017-07-29T03:50:19.570Z,18.13
2017-07-29T03:51:17.292Z,18.13
2017-07-29T03:52:15.102Z,18.14
2017-07-29T03:53:12.552Z,18.15
2017-07-29T03:54:09.939Z,18.15
2017-07-29T03:55:07.587Z,18.14
2017-07-29T03:56:04.035Z,18.16
2017-07-29T03:57:00.863Z,18.15
2017-07-29T03:57:57.982Z,18.17
2017-07-29T03:58:57.377Z,18.17
2017-07-29T03:59:53.979Z,18.17
2017-07-29T04:00:50.579Z,18.18
2017-07-29T04:01:48.935Z,18.19
2017-07-29T04:02:46.068Z,18.19
2017-07-29T04:03:42.804Z,18.19
2017-07-29T04:04:39.702Z,18.19
2017-07-29T04:05:36.712Z,18.19
2017-07-29T04:06:33.159Z,18.18
2017-07-29T04:07:30.539Z,18.20
2017-07-29T04:08:28.745Z,18.18
2017-07-29T04:09:25.283Z,18.20
2017-07-29T04:10:22.019Z,18.20
2017-07-29T04:11:18.866Z,18.21
2017-07-29T04:12:15.659Z,18.20
2017-07-29T04:13:12.267Z,18.20
2017-07-29T04:14:09.632Z,18.20
2017-07-29T04:15:06.791Z,18.20
2017-07-29T04:16:03.701Z,18.20
2017-07-29T04:17:02.176Z,18.20
2017-07-29T04:18:00.823Z,18.21
2017-07-29T04:18:57.616Z,18.21
2017-07-29T04:19:55.111Z,18.21
2017-07-29T04:20:52.648Z,18.21
2017-07-29T04:21:50.832Z,18.22
2017-07-29T04:22:47.514Z,18.22
2017-07-29T04:23:44.363Z,18.23
2017-07-29T04:24:41.051Z,18.23
2017-07-29T04:25:37.545Z,18.24
2017-07-29T04:26:34.843Z,18.23
2017-07-29T04:27:31.658Z,18.23
2017-07-29T04:28:28.798Z,18.25
2017-07-29T04:29:25.826Z,18.25
2017-07-29T04:30:22.987Z,18.25
2017-07-29T04:31:19.944Z,18.26
2017-07-29T04:32:17.088Z,18.27
2017-07-29T04:33:13.710Z,18.27
2017-07-29T04:34:11.836Z,18.28
2017-07-29T04:35:08.435Z,18.28
2017-07-29T04:36:05.216Z,18.29
2017-07-29T04:37:02.196Z,18.30
2017-07-29T04:38:00.083Z,18.30
2017-07-29T04:38:56.724Z,18.31
2017-07-29T04:39:54.572Z,18.32
2017-07-29T04:40:52.741Z,18.31
2017-07-29T04:41:49.970Z,18.32
2017-07-29T04:42:46.891Z,18.33
2017-07-29T04:43:43.234Z,18.35
2017-07-29T04:44:41.364Z,18.34
2017-07-29T04:45:38.180Z,18.34
2017-07-29T04:46:34.642Z,18.37
2017-07-29T04:47:31.755Z,18.36
2017-07-29T04:48:28.500Z,18.36
2017-07-29T04:49:26.283Z,18.37
2017-07-29T04:50:24.344Z,18.37
2017-07-29T04:51:21.068Z,18.36
2017-07-29T04:52:17.839Z,18.37
2017-07-29T04:53:14.676Z,18.38
2017-07-29T04:54:12.827Z,18.38
2017-07-29T04:55:10.970Z,18.39
2017-07-29T04:56:07.830Z,18.38
2017-07-29T04:57:04.707Z,18.40
2017-07-29T04:58:01.739Z,18.39
2017-07-29T04:58:59.315Z,18.40
2017-07-29T04:59:56.111Z,18.41
2017-07-29T05:00:53.616Z,18.42
2017-07-29T05:01:51.188Z,18.41
2017-07-29T05:02:48.532Z,18.42
2017-07-29T05:03:45.136Z,18.43
2017-07-29T05:04:41.808Z,18.43
2017-07-29T05:05:39.926Z,18.44
2017-07-29T05:06:40.268Z,18.44
2017-07-29T05:07:37.306Z,18.45
2017-07-29T05:08:34.776Z,18.44
2017-07-29T05:09:31.413Z,18.46
2017-07-29T05:10:28.184Z,18.45
2017-07-29T05:11:24.828Z,18.46
2017-07-29T05:12:21.358Z,18.45
2017-07-29T05:13:18.615Z,18.48
2017-07-29T05:14:16.198Z,18.46
2017-07-29T05:15:13.822Z,18.48
2017-07-29T05:16:11.105Z,18.48
2017-07-29T05:17:08.772Z,18.49
2017-07-29T05:18:06.336Z,18.49
2017-07-29T05:19:02.815Z,18.50
2017-07-29T05:20:00.294Z,18.50
2017-07-29T05:20:57.103Z,18.51
2017-07-29T05:21:53.826Z,18.51
2017-07-29T05:22:50.739Z,18.53
2017-07-29T05:23:47.811Z,18.54
2017-07-29T05:24:44.451Z,18.55
2017-07-29T05:25:41.801Z,18.54
2017-07-29T05:26:40.291Z,18.56
2017-07-29T05:27:36.711Z,18.57
2017-07-29T05:28:34.862Z,18.58
2017-07-29T05:29:31.396Z,18.58
2017-07-29T05:30:30.311Z,18.59
2017-07-29T05:31:26.774Z,18.59
2017-07-29T05:32:23.970Z,18.61
2017-07-29T05:33:21.399Z,18.60
2017-07-29T05:34:18.124Z,18.63
2017-07-29T05:35:15.252Z,18.63
2017-07-29T05:36:12.096Z,18.63
2017-07-29T05:37:08.777Z,18.64
2017-07-29T05:38:05.543Z,18.65
2017-07-29T05:39:02.251Z,18.67
2017-07-29T05:39:59.951Z,18.67
2017-07-29T05:40:57.204Z,18.68
2017-07-29T05:41:54.135Z,18.69
2017-07-29T05:42:50.698Z,18.70
2017-07-29T05:43:47.973Z,18.71
2017-07-29T05:44:45.473Z,18.74
2017-07-29T05:45:42.328Z,18.74
2017-07-29T05:46:39.225Z,18.75
2017-07-29T05:47:36.925Z,18.76
2017-07-29T05:48:33.662Z,18.78
2017-07-29T05:49:29.948Z,18.79
2017-07-29T05:50:26.194Z,18.80
2017-07-29T05:51:22.434Z,18.81
2017-07-29T05:52:18.666Z,18.82
2017-07-29T05:53:14.946Z,18.83
2017-07-29T05:54:11.203Z,18.85
2017-07-29T05:55:07.441Z,18.88
2017-07-29T05:56:03.690Z,18.88
2017-07-29T05:56:59.935Z,18.89
2017-07-29T05:57:56.181Z,18.91
2017-07-29T05:58:52.442Z,18.92
2017-07-29T05:59:48.690Z,18.93
2017-07-29T06:00:44.946Z,18.95
2017-07-29T06:01:41.212Z,18.96
2017-07-29T06:02:37.458Z,18.97
2017-07-29T06:03:33.751Z,18.98
2017-07-29T06:04:29.998Z,19.00
2017-07-29T06:05:26.243Z,19.01
2017-07-29T06:06:22.538Z,19.02
2017-07-29T06:07:18.794Z,19.03
2017-07-29T06:08:15.059Z,19.04
2017-07-29T06:09:11.324Z,19.05
2017-07-29T06:10:07.570Z,19.07
2017-07-29T06:11:03.814Z,19.09
2017-07-29T06:12:00.079Z,19.10
2017-07-29T06:12:56.331Z,19.11
2017-07-29T06:13:52.598Z,19.11
2017-07-29T06:14:48.834Z,19.13
2017-07-29T06:15:45.081Z,19.14
2017-07-29T06:16:41.322Z,19.15
2017-07-29T06:17:37.588Z,19.15
2017-07-29T06:18:33.886Z,19.17
2017-07-29T06:19:30.145Z,19.17
2017-07-29T06:20:26.387Z,19.18
2017-07-29T06:21:22.650Z,19.19
2017-07-29T06:22:19.038Z,19.21
2017-07-29T06:23:15.286Z,19.22
2017-07-29T06:24:11.546Z,19.24
2017-07-29T06:25:07.793Z,19.25
2017-07-29T06:26:04.033Z,19.27
2017-07-29T06:27:00.278Z,19.29
2017-07-29T06:27:56.526Z,19.31
2017-07-29T06:28:52.771Z,19.33
2017-07-29T06:29:49.043Z,19.35
2017-07-29T06:30:48.345Z,19.36
2017-07-29T06:31:44.606Z,19.38
2017-07-29T06:32:40.881Z,19.39
2017-07-29T06:33:37.182Z,19.42
2017-07-29T06:34:33.442Z,19.43
2017-07-29T06:35:29.693Z,19.45
2017-07-29T06:36:25.947Z,19.48
2017-07-29T06:37:22.182Z,19.49
2017-07-29T06:38:18.426Z,19.51
2017-07-29T06:39:14.666Z,19.52
2017-07-29T06:40:10.929Z,19.56
2017-07-29T06:41:07.178Z,19.58
2017-07-29T06:42:03.454Z,19.59
2017-07-29T06:42:59.712Z,19.63
2017-07-29T06:43:55.955Z,19.64
2017-07-29T06:44:52.223Z,19.67
2017-07-29T06:45:48.469Z,19.68
2017-07-29T06:46:44.733Z,19.71
2017-07-29T06:47:40.988Z,19.72
2017-07-29T06:48:37.233Z,19.76
2017-07-29T06:49:33.479Z,19.78
2017-07-29T06:50:29.753Z,19.79
2017-07-29T06:51:26.006Z,19.81
2017-07-29T06:52:22.255Z,19.82
2017-07-29T06:53:18.510Z,19.84
2017-07-29T06:54:14.762Z,19.86
2017-07-29T06:55:11.026Z,19.89
2017-07-29T06:56:07.275Z,19.89
2017-07-29T06:57:03.518Z,19.91
2017-07-29T06:57:59.762Z,19.94
2017-07-29T06:58:56.001Z,19.94
2017-07-29T06:59:52.270Z,19.96
2017-07-29T07:00:48.544Z,19.97
2017-07-29T07:01:44.792Z,20.00
2017-07-29T07:02:41.034Z,20.00
2017-07-29T07:03:37.278Z,20.03
2017-07-29T07:04:33.518Z,20.03
2017-07-29T07:05:29.775Z,20.06
2017-07-29T07:06:26.026Z,20.08
2017-07-29T07:07:22.266Z,20.10
2017-07-29T07:08:18.510Z,20.11
2017-07-29T07:09:14.750Z,20.12
2017-07-29T07:10:11.022Z,20.15
2017-07-29T07:11:07.263Z,20.17
2017-07-29T07:12:03.507Z,20.19
2017-07-29T07:12:59.753Z,20.20
2017-07-29T07:13:55.993Z,20.22
2017-07-29T07:14:52.236Z,20.26
2017-07-29T07:15:48.515Z,20.27
2017-07-29T07:16:44.758Z,20.30
2017-07-29T07:17:41.008Z,20.31
2017-07-29T07:18:37.251Z,20.35
2017-07-29T07:19:33.495Z,20.36
2017-07-29T07:20:29.731Z,20.38
2017-07-29T07:21:26.899Z,20.41
2017-07-29T07:22:23.154Z,20.44
2017-07-29T07:23:19.402Z,20.47
2017-07-29T07:24:15.651Z,20.49
2017-07-29T07:25:11.898Z,20.52
2017-07-29T07:26:08.167Z,20.55
2017-07-29T07:27:04.406Z,20.59
2017-07-29T07:28:00.654Z,20.62
2017-07-29T07:28:56.895Z,20.66
2017-07-29T07:29:53.151Z,20.70
2017-07-29T07:30:49.561Z,20.73
2017-07-29T07:31:45.906Z,20.76
2017-07-29T07:32:42.176Z,20.80
2017-07-29T07:33:38.430Z,20.81
2017-07-29T07:34:38.449Z,20.83
2017-07-29T07:35:34.719Z,20.86
2017-07-29T07:36:30.975Z,20.86
2017-07-29T07:37:27.228Z,20.87
2017-07-29T07:38:23.471Z,20.89
2017-07-29T07:39:19.746Z,20.88
2017-07-29T07:40:16.443Z,20.88
2017-07-29T07:41:13.085Z,20.88
2017-07-29T07:42:11.499Z,20.88
2017-07-29T07:43:07.818Z,20.88
2017-07-29T07:44:04.099Z,21.01
2017-07-29T07:45:00.499Z,21.27
2017-07-29T07:45:57.090Z,21.51
2017-07-29T07:46:53.394Z,21.73
2017-07-29T07:47:49.659Z,21.86
2017-07-29T07:48:45.933Z,21.99
2017-07-29T07:49:42.326Z,22.10
2017-07-29T07:50:38.574Z,22.16
2017-07-29T07:51:35.746Z,22.24
2017-07-29T07:52:32.006Z,22.30
2017-07-29T07:53:28.245Z,22.37
2017-07-29T07:54:25.619Z,22.42
2017-07-29T07:55:21.854Z,22.46
2017-07-29T07:56:18.110Z,22.52
2017-07-29T07:57:14.378Z,22.55
2017-07-29T07:58:10.613Z,22.59
2017-07-29T07:59:06.843Z,22.64
2017-07-29T08:00:03.085Z,22.67
2017-07-29T08:00:59.336Z,22.71
2017-07-29T08:09:34.403Z,23.03
2017-07-29T08:10:30.686Z,23.04
2017-07-29T08:11:26.946Z,23.08
2017-07-29T08:12:23.226Z,23.09
2017-07-29T08:13:19.473Z,23.12
2017-07-29T08:14:16.647Z,23.13
2017-07-29T08:15:13.001Z,23.16
2017-07-29T08:16:09.239Z,23.16
2017-07-29T08:17:05.498Z,23.20
2017-07-29T08:18:01.767Z,23.22
2017-07-29T08:18:58.018Z,23.24
2017-07-29T08:19:54.266Z,23.26
2017-07-29T08:20:50.499Z,23.29
2017-07-29T08:21:46.761Z,23.31
2017-07-29T08:22:43.339Z,23.33
2017-07-29T08:23:39.582Z,23.36
2017-07-29T08:24:35.822Z,23.36
2017-07-29T08:25:32.071Z,23.39
2017-07-29T08:26:28.331Z,23.39
2017-07-29T08:27:24.590Z,23.42
2017-07-29T08:28:20.868Z,23.44
2017-07-29T08:29:17.118Z,23.46
2017-07-29T08:30:13.370Z,23.48
2017-07-29T08:31:09.621Z,23.51
2017-07-29T08:32:05.867Z,23.53
2017-07-29T08:33:02.130Z,23.55
2017-07-29T08:33:58.382Z,23.58
2017-07-29T08:34:54.622Z,23.58
2017-07-29T08:35:50.858Z,23.60
2017-07-29T08:36:47.994Z,23.61
2017-07-29T08:37:44.239Z,23.63
2017-07-29T08:38:40.510Z,23.65
2017-07-29T08:39:36.745Z,23.67
2017-07-29T08:40:33.003Z,23.68
2017-07-29T08:41:29.259Z,23.70
2017-07-29T08:42:25.531Z,23.71
2017-07-29T08:43:21.795Z,23.73
2017-07-29T08:44:18.042Z,23.74
2017-07-29T08:45:14.299Z,23.76
2017-07-29T08:46:10.541Z,23.77
2017-07-29T08:47:06.790Z,23.79
2017-07-29T08:48:03.038Z,23.82
2017-07-29T08:48:59.299Z,23.86
2017-07-29T08:49:55.556Z,23.88
2017-07-29T08:50:51.814Z,23.92
2017-07-29T08:51:48.058Z,23.94
2017-07-29T08:52:44.311Z,23.97
2017-07-29T08:53:40.574Z,23.99
2017-07-29T08:54:36.818Z,24.02
2017-07-29T08:55:33.062Z,24.06
2017-07-29T08:56:30.284Z,24.11
2017-07-29T08:57:26.538Z,24.15
2017-07-29T08:58:22.786Z,24.20
2017-07-29T08:59:19.051Z,24.27
2017-07-29T09:00:15.583Z,24.33
2017-07-29T09:01:11.826Z,24.39
2017-07-29T09:02:08.251Z,24.49
2017-07-29T09:03:06.262Z,24.56
2017-07-29T09:04:02.535Z,24.64
2017-07-29T09:04:58.786Z,24.74
2017-07-29T09:05:55.045Z,24.86
2017-07-29T09:06:51.306Z,24.98
2017-07-29T09:07:47.546Z,25.11
2017-07-29T09:08:43.847Z,25.25
2017-07-29T09:09:40.098Z,25.36
2017-07-29T09:10:36.337Z,25.46
2017-07-29T09:11:33.426Z,25.55
2017-07-29T09:12:29.714Z,25.60
2017-07-29T09:13:25.982Z,25.65
2017-07-29T09:14:22.255Z,25.67
2017-07-29T09:15:18.512Z,25.71
2017-07-29T09:16:14.754Z,25.73
2017-07-29T09:17:11.001Z,25.80
2017-07-29T09:18:07.254Z,25.84
2017-07-29T09:19:03.506Z,25.90
2017-07-29T09:19:59.783Z,25.97
2017-07-29T09:20:56.050Z,26.05
2017-07-29T09:21:52.351Z,26.13
2017-07-29T09:22:48.610Z,26.22
2017-07-29T09:23:44.859Z,26.28
2017-07-29T09:24:41.114Z,26.35
2017-07-29T09:25:37.363Z,26.39
2017-07-29T09:26:33.615Z,26.44
2017-07-29T09:27:29.866Z,26.51
2017-07-29T09:28:26.131Z,26.56
2017-07-29T09:29:22.394Z,26.62
2017-07-29T09:30:18.666Z,26.66
2017-07-29T09:31:14.936Z,26.72
2017-07-29T09:32:11.178Z,26.79
2017-07-29T09:33:07.431Z,26.88
2017-07-29T09:34:03.695Z,26.96
2017-07-29T09:34:59.946Z,27.07
2017-07-29T09:35:56.193Z,27.17
2017-07-29T09:36:52.426Z,27.26
2017-07-29T09:37:48.670Z,27.35
2017-07-29T09:38:44.937Z,27.46
2017-07-29T09:39:41.210Z,27.55
2017-07-29T09:40:37.474Z,27.64
2017-07-29T09:41:33.722Z,27.73
2017-07-29T09:42:30.159Z,27.87
2017-07-29T09:43:26.522Z,27.97
2017-07-29T09:44:22.775Z,28.08
2017-07-29T09:45:19.051Z,28.18
2017-07-29T09:46:15.297Z,28.25
2017-07-29T09:47:11.558Z,28.29
2017-07-29T09:48:07.838Z,28.30
2017-07-29T09:49:04.102Z,28.30
2017-07-29T09:50:00.398Z,28.29
2017-07-29T09:50:56.662Z,28.29
2017-07-29T09:51:52.915Z,28.29
2017-07-29T09:52:49.167Z,28.28
2017-07-29T09:53:45.419Z,28.29
2017-07-29T09:54:41.678Z,28.31
2017-07-29T09:55:37.985Z,28.33
2017-07-29T09:56:34.279Z,28.35
2017-07-29T09:57:30.525Z,28.40
2017-07-29T09:58:26.765Z,28.45
2017-07-29T09:59:23.006Z,28.50
2017-07-29T10:00:19.293Z,28.55
2017-07-29T10:01:15.547Z,28.59
2017-07-29T10:02:11.799Z,28.64
2017-07-29T10:03:08.062Z,28.71
2017-07-29T10:04:04.307Z,28.76
2017-07-29T10:05:00.550Z,28.82
2017-07-29T10:05:56.806Z,28.87
2017-07-29T10:06:53.061Z,28.92
2017-07-29T10:07:49.322Z,28.96
2017-07-29T10:08:45.569Z,29.01
2017-07-29T10:09:41.814Z,29.02
2017-07-29T10:10:38.078Z,29.05
2017-07-29T10:11:34.339Z,29.04
2017-07-29T10:12:30.582Z,29.01
2017-07-29T10:13:26.834Z,28.98
2017-07-29T10:14:23.102Z,28.97
2017-07-29T10:15:19.639Z,28.95
2017-07-29T10:16:15.898Z,28.96
2017-07-29T10:17:12.154Z,28.98
2017-07-29T10:18:08.402Z,29.01
2017-07-29T10:19:04.650Z,29.04
2017-07-29T10:20:00.955Z,29.05
2017-07-29T10:20:57.217Z,29.08
2017-07-29T10:21:53.478Z,29.10
2017-07-29T10:22:49.727Z,29.11
2017-07-29T10:23:45.971Z,29.11
2017-07-29T10:24:42.219Z,29.09
2017-07-29T10:25:38.486Z,29.10
2017-07-29T10:26:34.750Z,29.10
2017-07-29T10:27:30.994Z,29.10
2017-07-29T10:28:27.246Z,29.11
2017-07-29T10:29:23.498Z,29.12
2017-07-29T10:30:19.760Z,29.11
2017-07-29T10:31:16.021Z,29.13
2017-07-29T10:32:12.270Z,29.15
2017-07-29T10:33:08.531Z,29.16
2017-07-29T10:34:04.781Z,29.19
2017-07-29T10:35:01.022Z,29.21
2017-07-29T10:35:57.284Z,29.24
2017-07-29T10:36:53.551Z,29.25
2017-07-29T10:37:49.842Z,29.26
2017-07-29T10:38:46.086Z,29.24
2017-07-29T10:39:42.334Z,29.26
2017-07-29T10:40:38.583Z,29.26
2017-07-29T10:41:34.874Z,29.27
2017-07-29T10:42:31.150Z,29.28
2017-07-29T10:43:27.391Z,29.32
2017-07-29T10:44:23.655Z,29.34
2017-07-29T10:45:19.889Z,29.35
2017-07-29T10:46:16.134Z,29.35
2017-07-29T10:47:12.411Z,29.34
2017-07-29T10:48:08.687Z,29.34
2017-07-29T10:49:04.950Z,29.35
2017-07-29T10:50:01.215Z,29.35
2017-07-29T10:50:57.477Z,29.35
2017-07-29T10:51:53.748Z,29.35
2017-07-29T10:52:50.002Z,29.35
2017-07-29T10:53:46.241Z,29.33
2017-07-29T10:54:42.503Z,29.34
2017-07-29T10:55:38.750Z,29.35
2017-07-29T10:56:35.002Z,29.36
2017-07-29T10:57:31.257Z,29.37
2017-07-29T10:58:27.494Z,29.40
2017-07-29T10:59:23.743Z,29.40
2017-07-29T11:00:20.470Z,29.38
2017-07-29T11:01:16.706Z,29.31
2017-07-29T11:02:12.974Z,29.25
2017-07-29T11:03:09.210Z,29.20
2017-07-29T11:04:05.458Z,29.17
2017-07-29T11:05:01.702Z,29.13
2017-07-29T11:05:57.948Z,29.09
2017-07-29T11:06:54.186Z,29.05
2017-07-29T11:07:50.437Z,29.01
2017-07-29T11:08:46.672Z,28.94
2017-07-29T11:09:42.915Z,28.87
2017-07-29T11:10:39.158Z,28.80
2017-07-29T11:11:35.403Z,28.73
2017-07-29T11:12:31.689Z,28.67
2017-07-29T11:13:27.943Z,28.63
2017-07-29T11:14:24.190Z,28.58
2017-07-29T11:15:20.430Z,28.51
2017-07-29T11:16:16.679Z,28.44
2017-07-29T11:17:12.919Z,28.37
2017-07-29T11:18:09.175Z,28.28
2017-07-29T11:19:06.007Z,28.23
2017-07-29T11:20:02.259Z,28.20
2017-07-29T11:20:58.515Z,28.16
2017-07-29T11:21:54.766Z,28.13
2017-07-29T11:22:51.035Z,28.13
2017-07-29T11:23:47.279Z,28.11
2017-07-29T11:24:43.530Z,28.13
2017-07-29T11:25:39.770Z,28.14
2017-07-29T11:26:36.018Z,28.16
2017-07-29T11:27:32.263Z,28.18
2017-07-29T11:28:28.514Z,28.19
2017-07-29T11:29:24.753Z,28.23
2017-07-29T11:30:21.004Z,28.26
2017-07-29T11:31:17.247Z,28.30
2017-07-29T11:32:13.502Z,28.36
2017-07-29T11:33:09.771Z,28.40
2017-07-29T11:34:06.023Z,28.45
2017-07-29T11:35:02.281Z,28.50
2017-07-29T11:35:58.539Z,28.55
2017-07-29T11:36:54.773Z,28.59
2017-07-29T11:37:51.019Z,28.61
2017-07-29T11:38:47.278Z,28.64
2017-07-29T11:39:43.518Z,28.66
2017-07-29T11:40:39.770Z,28.67
2017-07-29T11:41:36.019Z,28.67
2017-07-29T11:42:32.294Z,28.67
2017-07-29T11:43:28.570Z,28.68
2017-07-29T11:44:24.823Z,28.69
2017-07-29T11:45:21.082Z,28.73
2017-07-29T11:46:17.330Z,28.76
2017-07-29T11:47:13.566Z,28.81
2017-07-29T11:48:09.825Z,28.84
2017-07-29T11:49:06.083Z,28.90
2017-07-29T11:50:02.342Z,28.94
2017-07-29T11:50:58.598Z,29.00
2017-07-29T11:51:54.834Z,29.07
2017-07-29T11:52:51.078Z,29.12
2017-07-29T11:53:47.337Z,29.17
2017-07-29T11:54:43.581Z,29.21
2017-07-29T11:55:39.831Z,29.22
2017-07-29T11:56:36.086Z,29.24
2017-07-29T11:57:32.326Z,29.25
2017-07-29T11:58:28.566Z,29.26
2017-07-29T11:59:24.827Z,29.27
2017-07-29T12:00:21.075Z,29.26
2017-07-29T12:01:17.343Z,29.28
2017-07-29T12:02:13.589Z,29.30
2017-07-29T12:03:09.834Z,29.33
2017-07-29T12:04:06.095Z,29.35
2017-07-29T12:05:02.331Z,29.36
2017-07-29T12:05:58.570Z,29.37
2017-07-29T12:06:54.830Z,29.40
2017-07-29T12:07:51.078Z,29.41
2017-07-29T12:08:47.326Z,29.41
2017-07-29T12:09:43.590Z,29.38
2017-07-29T12:10:39.843Z,29.35
2017-07-29T12:11:36.098Z,29.31
2017-07-29T12:12:32.341Z,29.26
2017-07-29T12:13:28.585Z,29.24
2017-07-29T12:14:24.858Z,29.21